Time;durP1;ratioP1;P1;durP2;ratioP2;P2;SDS_P1;SDS_P2;PMS_P1;PMS_P2;Temp;Humidity;BMP_temperature;BMP_pressure;BME280_temperature;BME280_humidity;BME280_pressure;Samples;Min_cycle;Max_cycle;Signal;HPM_P1;HPM_P2
2024/01/17 00:01:50;;;;;;;0.47;0.47;;;;;;;-0.12;88.33;100293.63;5095136;27;97102;-26
2024/01/17 00:04:16;;;;;;;1.23;1.13;;;;;;;-0.11;88.56;100298.94;5094212;27;96670;-27
2024/01/17 00:06:41;;;;;;;3.72;1.13;;;;;;;0.01;88.21;100289.75;5076221;27;96724;-27
2024/01/17 00:09:07;;;;;;;1.38;1.08;;;;;;;0.02;87.59;100288.81;5094103;27;99589;-27
2024/01/17 00:11:33;;;;;;;0.50;0.50;;;;;;;0.07;87.36;100278.03;5094783;27;97805;-27
2024/01/17 00:13:58;;;;;;;1.50;0.85;;;;;;;-0.03;87.18;100262.31;5094496;27;96985;-27
2024/01/17 00:16:24;;;;;;;0.50;0.50;;;;;;;0.04;87.04;100260.38;5094929;27;96756;-27
2024/01/17 00:18:49;;;;;;;1.15;1.05;;;;;;;-0.03;86.85;100262.31;5094566;27;97347;-27
2024/01/17 00:21:14;;;;;;;1.35;1.25;;;;;;;-0.05;87.12;100244.66;5094393;27;97287;-27
2024/01/17 00:23:40;;;;;;;0.85;0.85;;;;;;;-0.04;87.05;100249.94;5094358;27;96645;-27
2024/01/17 00:26:05;;;;;;;0.57;0.55;;;;;;;-0.05;86.97;100249.97;5094926;27;96802;-27
2024/01/17 00:28:31;;;;;;;0.52;0.50;;;;;;;-0.08;86.20;100245.59;5094167;27;99017;-27
2024/01/17 00:30:57;;;;;;;0.35;0.35;;;;;;;0.03;86.50;100250.66;5094199;27;101564;-27
2024/01/17 00:33:22;;;;;;;2.00;1.35;;;;;;;0.03;86.41;100257.78;5075503;27;97446;-27
2024/01/17 00:35:48;;;;;;;0.65;0.47;;;;;;;-0.02;86.21;100245.44;5094143;27;96812;-28
2024/01/17 00:38:13;;;;;;;1.30;1.20;;;;;;;-0.02;86.21;100241.91;5094057;27;99375;-27
2024/01/17 00:40:39;;;;;;;1.33;1.23;;;;;;;-0.05;86.27;100242.88;5094180;27;98671;-27
2024/01/17 00:43:05;;;;;;;1.10;0.90;;;;;;;-0.19;86.67;100225.53;5094090;27;96597;-27
2024/01/17 00:45:30;;;;;;;0.98;0.85;;;;;;;-0.06;86.81;100226.94;5094350;27;96748;-27
2024/01/17 00:47:55;;;;;;;1.35;1.25;;;;;;;0.06;86.38;100223.06;5093757;27;99238;-29
2024/01/17 00:50:22;;;;;;;0.10;0.10;;;;;;;0.09;86.27;100213.19;5093847;27;99150;-27
2024/01/17 00:52:47;;;;;;;1.63;1.35;;;;;;;0.13;85.45;100216.66;5093668;27;96599;-27
2024/01/17 00:55:12;;;;;;;1.05;1.02;;;;;;;0.04;85.40;100211.56;5094141;27;96825;-28
2024/01/17 00:57:38;;;;;;;0.43;0.43;;;;;;;-0.09;86.99;100193.31;5093212;27;99320;-28
2024/01/17 01:00:04;;;;;;;0.45;0.45;;;;;;;0.04;86.36;100206.25;5094223;27;97362;-27
2024/01/17 01:02:30;;;;;;;0.25;0.25;;;;;;;0.12;86.26;100204.22;5075262;27;96658;-27
2024/01/17 01:04:55;;;;;;;1.00;1.00;;;;;;;0.11;86.18;100189.19;5093595;27;96755;-27
2024/01/17 01:07:21;;;;;;;1.15;0.95;;;;;;;0.10;86.03;100190.97;5093359;27;103618;-27
2024/01/17 01:09:46;;;;;;;1.45;1.00;;;;;;;0.08;86.42;100187.50;5093867;27;97395;-27
2024/01/17 01:12:11;;;;;;;0.57;0.57;;;;;;;0.01;86.50;100171.75;5093749;27;96434;-27
2024/01/17 01:14:37;;;;;;;1.50;0.80;;;;;;;-0.02;85.97;100189.53;5094234;27;96733;-26
2024/01/17 01:17:02;;;;;;;0.28;0.28;;;;;;;0.06;86.42;100193.78;5093550;27;99850;-27
2024/01/17 01:19:28;;;;;;;0.47;0.30;;;;;;;-0.06;86.50;100181.69;5093354;27;99331;-27
2024/01/17 01:21:53;;;;;;;3.05;1.02;;;;;;;-0.03;87.23;100186.91;5092977;27;96555;-27
2024/01/17 01:24:19;;;;;;;0.60;0.60;;;;;;;-0.08;87.09;100178.19;5093866;27;96771;-27
2024/01/17 01:26:44;;;;;;;2.05;1.17;;;;;;;0.01;86.76;100180.59;5093420;27;98921;-27
2024/01/17 01:29:10;;;;;;;0.98;0.82;;;;;;;0.05;87.03;100182.25;5093549;27;97388;-27
2024/01/17 01:31:35;;;;;;;1.30;0.95;;;;;;;-0.02;86.67;100175.38;5093485;27;96606;-27
2024/01/17 01:34:01;;;;;;;0.63;0.63;;;;;;;0.07;86.51;100180.44;5093640;27;96831;-27
2024/01/17 01:36:26;;;;;;;2.22;0.82;;;;;;;0.02;86.59;100182.31;5093292;27;97578;-27
2024/01/17 01:38:51;;;;;;;1.55;1.33;;;;;;;0.06;87.13;100177.81;5093804;27;97590;-26
2024/01/17 01:41:17;;;;;;;1.70;0.82;;;;;;;-0.06;86.46;100163.91;5093236;27;99350;-27
2024/01/17 01:43:42;;;;;;;0.60;0.60;;;;;;;-0.05;86.47;100175.44;5093518;27;96773;-27
2024/01/17 01:46:21;;;;;;;3.75;1.35;;;;;;;-0.16;86.78;100170.44;5092617;27;101084;-27
2024/01/17 01:48:48;;;;;;;1.38;1.23;;;;;;;-0.15;86.88;100171.31;5074162;27;101072;-27
2024/01/17 01:51:14;;;;;;;0.40;0.40;;;;;;;-0.23;87.15;100153.75;5074465;27;96880;-27
2024/01/17 01:53:43;;;;;;;1.02;0.85;;;;;;;-0.29;87.13;100148.59;5074679;27;96704;-27
2024/01/17 01:56:11;;;;;;;0.73;0.73;;;;;;;-0.28;87.49;100153.03;5074391;27;101073;-27
2024/01/17 01:58:37;;;;;;;0.40;0.40;;;;;;;-0.36;87.85;100144.38;5093167;27;97383;-27
2024/01/17 02:01:04;;;;;;;0.77;0.68;;;;;;;-0.35;88.03;100147.94;5093062;27;96656;-28
2024/01/17 02:03:30;;;;;;;7.32;1.45;;;;;;;-0.41;88.10;100137.44;5074613;27;96920;-28
2024/01/17 02:05:56;;;;;;;0.80;0.75;;;;;;;-0.41;88.31;100118.81;5092433;27;99801;-27
2024/01/17 02:08:21;;;;;;;4.18;0.52;;;;;;;-0.33;88.08;100130.13;5093153;27;97880;-27
2024/01/17 02:10:46;;;;;;;3.60;0.77;;;;;;;-0.36;88.00;100120.44;5092558;27;96634;-27
2024/01/17 02:13:13;;;;;;;0.32;0.32;;;;;;;-0.38;88.21;100116.06;5093113;27;96731;-27
2024/01/17 02:15:39;;;;;;;0.60;0.60;;;;;;;-0.40;88.01;100104.63;5092989;27;98017;-27
2024/01/17 02:18:04;;;;;;;0.75;0.75;;;;;;;-0.49;88.12;100095.13;5073926;27;101330;-27
2024/01/17 02:20:30;;;;;;;0.98;0.80;;;;;;;-0.49;88.61;100101.28;5074407;27;96663;-27
2024/01/17 02:22:56;;;;;;;4.75;1.40;;;;;;;-0.60;88.90;100089.22;5094106;27;96802;-27
2024/01/17 02:25:21;;;;;;;2.83;0.75;;;;;;;-0.57;88.87;100094.44;5096511;27;97351;-26
2024/01/17 02:27:46;;;;;;;1.25;1.10;;;;;;;-0.62;89.29;100091.03;5096518;27;99080;-27
2024/01/17 02:30:14;;;;;;;1.15;1.08;;;;;;;-0.60;89.00;100092.75;5096521;27;96793;-27
2024/01/17 02:32:40;;;;;;;1.27;1.15;;;;;;;-0.57;89.40;100076.72;5096248;27;96846;-27
2024/01/17 02:35:05;;;;;;;0.75;0.55;;;;;;;-0.65;89.21;100071.59;5095802;27;97937;-27
2024/01/17 02:37:31;;;;;;;0.10;0.10;;;;;;;-0.73;89.66;100070.94;5096004;27;99181;-27
2024/01/17 02:39:56;;;;;;;1.50;1.10;;;;;;;-0.69;89.46;100064.63;5096259;27;96584;-28
2024/01/17 02:42:21;;;;;;;0.47;0.38;;;;;;;-0.71;89.38;100054.97;5096116;27;100785;-27
2024/01/17 02:44:47;;;;;;;2.00;1.35;;;;;;;-0.71;89.44;100068.25;5095863;27;99762;-27
2024/01/17 02:47:12;;;;;;;0.35;0.35;;;;;;;-0.68;89.01;100057.53;5095740;27;97781;-27
2024/01/17 02:49:37;;;;;;;1.55;1.25;;;;;;;-0.57;88.99;100059.88;5096182;27;96667;-27
2024/01/17 02:52:03;;;;;;;2.88;1.65;;;;;;;-0.62;88.52;100060.03;5077271;27;96814;-27
2024/01/17 02:54:28;;;;;;;0.32;0.32;;;;;;;-0.60;88.92;100051.97;5096007;27;97412;-27
2024/01/17 02:56:54;;;;;;;0.80;0.80;;;;;;;-0.57;88.47;100055.44;5095662;27;102473;-27
2024/01/17 02:59:19;;;;;;;1.20;1.13;;;;;;;-0.56;88.88;100054.50;5095628;27;96651;-27
2024/01/17 03:01:46;;;;;;;2.90;1.05;;;;;;;-0.59;88.70;100040.44;5095412;27;100783;-27
2024/01/17 03:04:11;;;;;;;2.30;1.52;;;;;;;-0.64;88.81;100037.91;5076801;27;101233;-27
2024/01/17 03:06:37;;;;;;;0.30;0.30;;;;;;;-0.62;89.15;100035.19;5076993;27;101033;-27
2024/01/17 03:09:02;;;;;;;0.80;0.77;;;;;;;-0.75;89.54;100026.72;5096046;27;96478;-27
2024/01/17 03:11:28;;;;;;;0.38;0.38;;;;;;;-0.64;89.25;100019.31;5095870;27;97007;-27
2024/01/17 03:13:53;;;;;;;0.63;0.63;;;;;;;-0.60;88.76;100022.72;5095307;27;99218;-27
2024/01/17 03:16:19;;;;;;;0.85;0.85;;;;;;;-0.69;88.90;100007.91;5095648;27;97273;-27
2024/01/17 03:18:45;;;;;;;0.45;0.40;;;;;;;-0.70;89.09;100007.03;5077161;27;96726;-28
2024/01/17 03:21:10;;;;;;;0.88;0.77;;;;;;;-0.66;89.11;100003.38;5095659;27;96789;-27
2024/01/17 03:23:36;;;;;;;1.17;0.65;;;;;;;-0.66;89.00;99991.88;5095010;27;96979;-28
2024/01/17 03:26:01;;;;;;;0.95;0.85;;;;;;;-0.73;89.04;99999.16;5095513;27;99436;-27
2024/01/17 03:28:27;;;;;;;1.30;0.63;;;;;;;-0.73;89.91;99996.50;5095266;27;96465;-27
2024/01/17 03:30:53;;;;;;;0.38;0.25;;;;;;;-0.74;89.42;99975.25;5095289;27;96712;-27
2024/01/17 03:33:18;;;;;;;0.93;0.85;;;;;;;-0.70;89.73;99976.94;5095157;27;97418;-27
2024/01/17 03:35:43;;;;;;;0.68;0.47;;;;;;;-0.85;89.71;99959.66;5094316;27;98309;-27
2024/01/17 03:38:09;;;;;;;0.25;0.25;;;;;;;-0.86;90.24;99960.53;5095398;27;96509;-27
2024/01/17 03:40:34;;;;;;;0.25;0.25;;;;;;;-0.83;90.11;99947.19;5095574;27;96791;-27
2024/01/17 03:42:59;;;;;;;0.28;0.22;;;;;;;-0.79;90.09;99947.94;5095209;27;97447;-27
2024/01/17 03:45:26;;;;;;;1.33;1.23;;;;;;;-0.76;90.18;99946.09;5094757;27;105520;-27
2024/01/17 03:47:51;;;;;;;0.77;0.77;;;;;;;-0.75;89.33;99931.84;5076019;27;97220;-27
2024/01/17 03:50:16;;;;;;;0.52;0.30;;;;;;;-0.79;89.88;99926.69;5095014;27;96767;-28
2024/01/17 03:52:42;;;;;;;0.35;0.35;;;;;;;-0.78;89.66;99923.13;5094510;27;99399;-26
2024/01/17 03:55:08;;;;;;;0.93;0.70;;;;;;;-0.86;90.09;99910.94;5094965;27;97920;-27
2024/01/17 03:57:34;;;;;;;0.82;0.75;;;;;;;-0.81;89.79;99923.19;5076352;27;96705;-28
2024/01/17 04:00:00;;;;;;;0.17;0.17;;;;;;;-0.83;90.24;99903.75;5094540;27;96778;-27
2024/01/17 04:02:25;;;;;;;0.75;0.57;;;;;;;-0.73;89.77;99910.56;5094886;27;98000;-27
2024/01/17 04:04:50;;;;;;;0.55;0.55;;;;;;;-0.87;90.04;99906.50;5094809;27;97886;-27
2024/01/17 04:07:20;;;;;;;0.10;0.10;;;;;;;-0.74;90.18;99900.81;5059181;27;96498;-27
2024/01/17 04:09:46;;;;;;;0.05;0.05;;;;;;;-0.70;89.95;99886.53;5094790;27;96751;-27
2024/01/17 04:12:11;;;;;;;0.50;0.50;;;;;;;-0.60;90.09;99869.34;5094304;27;97638;-27
2024/01/17 04:14:36;;;;;;;1.83;1.42;;;;;;;-0.55;89.33;99866.53;5094636;27;97873;-28
2024/01/17 04:17:02;;;;;;;0.93;0.85;;;;;;;-0.57;89.06;99857.75;5094789;27;96452;-27
2024/01/17 04:19:27;;;;;;;0.47;0.47;;;;;;;-0.53;89.13;99856.72;5094574;27;96925;-27
2024/01/17 04:21:56;;;;;;;0.70;0.70;;;;;;;-0.50;89.36;99854.88;5094491;27;97833;-27
2024/01/17 04:24:23;;;;;;;0.32;0.30;;;;;;;-0.64;89.02;99851.78;5075939;27;101409;-28
2024/01/17 04:26:48;;;;;;;0.10;0.10;;;;;;;-0.83;89.04;99826.66;5094657;27;96638;-27
2024/01/17 04:29:13;;;;;;;0.65;0.65;;;;;;;-0.92;89.62;99836.69;5094908;27;96788;-27
2024/01/17 04:31:39;;;;;;;0.43;0.43;;;;;;;-0.95;89.93;99836.78;5094176;27;103864;-27
2024/01/17 04:34:04;;;;;;;0.20;0.17;;;;;;;-0.98;90.07;99828.00;5094302;27;97857;-27
2024/01/17 04:36:30;;;;;;;1.00;0.85;;;;;;;-0.96;90.10;99832.38;5093760;27;96501;-27
2024/01/17 04:38:56;;;;;;;0.00;0.00;;;;;;;-0.99;90.26;99832.47;5094112;27;96735;-27
2024/01/17 04:41:22;;;;;;;0.70;0.70;;;;;;;-0.97;89.97;99817.34;5075536;27;100915;-27
2024/01/17 04:43:47;;;;;;;0.75;0.75;;;;;;;-0.94;89.80;99817.25;5093729;27;99170;-27
2024/01/17 04:46:14;;;;;;;1.25;1.15;;;;;;;-1.02;89.86;99810.44;5093534;27;96462;-27
2024/01/17 04:48:41;;;;;;;2.20;0.98;;;;;;;-1.01;90.00;99809.53;5093995;27;96652;-29
2024/01/17 04:51:07;;;;;;;0.47;0.47;;;;;;;-1.07;90.38;99802.63;5074877;27;100920;-27
2024/01/17 04:53:33;;;;;;;0.43;0.43;;;;;;;-1.04;90.24;99793.69;5075564;27;101046;-27
2024/01/17 04:55:59;;;;;;;0.47;0.43;;;;;;;-0.99;90.03;99797.91;5094110;27;96664;-27
2024/01/17 04:58:25;;;;;;;0.30;0.20;;;;;;;-0.95;90.14;99788.94;5075048;27;96756;-27
2024/01/17 05:00:50;;;;;;;0.98;0.70;;;;;;;-0.93;89.58;99773.81;5093535;27;97949;-26
2024/01/17 05:03:16;;;;;;;0.85;0.82;;;;;;;-0.96;89.26;99765.91;5093567;27;105122;-28
2024/01/17 05:05:44;;;;;;;1.30;1.20;;;;;;;-1.02;89.46;99750.19;5093440;27;96747;-27
2024/01/17 05:08:11;;;;;;;1.50;0.57;;;;;;;-0.98;89.18;99749.16;5075185;27;96821;-27
2024/01/17 05:10:36;;;;;;;1.33;0.88;;;;;;;-1.02;89.71;99741.34;5093668;27;98257;-28
2024/01/17 05:13:02;;;;;;;1.20;0.85;;;;;;;-1.08;89.57;99735.28;5093354;27;98570;-27
2024/01/17 05:15:27;;;;;;;1.77;1.52;;;;;;;-1.05;89.81;99746.75;5093547;27;96538;-27
2024/01/17 05:17:52;;;;;;;0.40;0.38;;;;;;;-1.10;89.96;99728.28;5093744;27;96746;-28
2024/01/17 05:20:18;;;;;;;0.10;0.10;;;;;;;-1.07;89.91;99726.41;5093407;27;99596;-27
2024/01/17 05:22:43;;;;;;;0.82;0.80;;;;;;;-1.05;90.13;99729.00;5092916;27;98255;-27
2024/01/17 05:25:11;;;;;;;1.13;0.98;;;;;;;-1.09;90.17;99722.94;5093307;27;96615;-26
2024/01/17 05:27:37;;;;;;;1.58;0.95;;;;;;;-1.19;90.15;99700.25;5074655;27;96993;-28
2024/01/17 05:30:04;;;;;;;2.38;1.67;;;;;;;-1.17;89.98;99713.47;5074893;27;100828;-27
2024/01/17 05:32:29;;;;;;;0.90;0.90;;;;;;;-1.18;90.53;99711.75;5093322;27;99081;-28
2024/01/17 05:34:54;;;;;;;0.45;0.45;;;;;;;-1.15;90.16;99707.19;5093520;27;96524;-28
2024/01/17 05:37:23;;;;;;;1.88;1.13;;;;;;;-1.23;90.49;99703.06;5093585;27;98044;-27
2024/01/17 05:39:49;;;;;;;2.08;1.08;;;;;;;-1.21;90.48;99702.09;5074716;27;102546;-27
2024/01/17 05:42:14;;;;;;;1.17;0.43;;;;;;;-1.19;90.25;99699.34;5092326;27;97723;-28
2024/01/17 05:44:39;;;;;;;1.27;0.73;;;;;;;-1.15;89.88;99685.06;5091026;27;96866;-31
2024/01/17 05:47:05;;;;;;;0.38;0.38;;;;;;;-1.17;89.70;99685.13;5090882;27;96791;-28
2024/01/17 05:49:30;;;;;;;1.17;0.68;;;;;;;-1.15;89.68;99679.75;5090559;27;97373;-32
2024/01/17 05:51:56;;;;;;;0.90;0.85;;;;;;;-1.15;89.42;99677.09;5090603;27;97831;-27
2024/01/17 05:54:21;;;;;;;2.75;1.30;;;;;;;-1.17;89.09;99677.16;5090986;27;96903;-28
2024/01/17 05:56:46;;;;;;;0.05;0.05;;;;;;;-1.14;88.81;99676.19;5091313;27;96831;-27
2024/01/17 05:59:13;;;;;;;1.27;1.15;;;;;;;-1.06;89.18;99671.47;5096499;27;99903;-27
2024/01/17 06:01:38;;;;;;;1.17;0.80;;;;;;;-1.26;88.63;99657.97;5078154;27;100909;-27
2024/01/17 06:04:04;;;;;;;1.40;1.30;;;;;;;-1.22;89.06;99657.81;5097027;27;96645;-27
2024/01/17 06:06:29;;;;;;;0.65;0.65;;;;;;;-1.18;89.20;99658.59;5097030;27;96588;-27
2024/01/17 06:08:54;;;;;;;0.20;0.20;;;;;;;-1.19;89.12;99646.22;5096882;27;98102;-27
2024/01/17 06:11:20;;;;;;;1.42;1.30;;;;;;;-1.21;89.13;99632.16;5096290;27;99233;-27
2024/01/17 06:13:45;;;;;;;0.38;0.38;;;;;;;-1.01;89.27;99642.97;5096391;27;96762;-27
2024/01/17 06:16:11;;;;;;;0.13;0.13;;;;;;;-0.96;88.98;99638.34;5096484;27;105535;-27
2024/01/17 06:18:36;;;;;;;1.73;0.47;;;;;;;-0.86;88.63;99650.44;5096639;27;97926;-27
2024/01/17 06:21:01;;;;;;;0.30;0.30;;;;;;;-0.87;88.61;99651.34;5096628;27;97869;-28
2024/01/17 06:23:26;;;;;;;0.45;0.40;;;;;;;-0.84;88.42;99649.50;5096687;27;96656;-28
2024/01/17 06:25:52;;;;;;;1.05;0.95;;;;;;;-0.81;88.52;99650.28;5096307;27;96762;-27
2024/01/17 06:28:18;;;;;;;0.20;0.20;;;;;;;-0.81;88.43;99654.69;5096548;27;97888;-27
2024/01/17 06:30:44;;;;;;;0.50;0.50;;;;;;;-0.92;88.33;99645.31;5078054;27;100808;-29
2024/01/17 06:33:10;;;;;;;0.70;0.65;;;;;;;-1.04;88.20;99636.91;5096422;27;96544;-27
2024/01/17 06:35:35;;;;;;;0.30;0.30;;;;;;;-1.03;88.41;99642.13;5077676;27;96815;-27
2024/01/17 06:38:01;;;;;;;1.25;1.05;;;;;;;-1.14;88.44;99628.38;5095723;27;97882;-26
2024/01/17 06:40:26;;;;;;;0.32;0.32;;;;;;;-1.16;88.70;99625.75;5096184;27;97651;-27
2024/01/17 06:42:52;;;;;;;0.10;0.10;;;;;;;-1.27;88.15;99609.28;5096314;27;96485;-27
2024/01/17 06:45:17;;;;;;;0.05;0.05;;;;;;;-1.14;88.65;99626.56;5096180;27;96757;-27
2024/01/17 06:47:43;;;;;;;3.70;1.65;;;;;;;-1.23;88.30;99615.41;5096045;27;99530;-27
2024/01/17 06:50:09;;;;;;;0.93;0.85;;;;;;;-1.38;88.51;99595.50;5096022;27;97739;-27
2024/01/17 06:52:35;;;;;;;0.50;0.50;;;;;;;-1.24;88.69;99622.50;5077049;27;96805;-28
2024/01/17 06:55:00;;;;;;;1.38;0.57;;;;;;;-1.31;88.74;99605.88;5096322;27;96744;-27
2024/01/17 06:57:25;;;;;;;1.20;0.57;;;;;;;-1.31;88.45;99607.69;5096060;27;97500;-27
2024/01/17 06:59:51;;;;;;;0.80;0.57;;;;;;;-1.31;88.70;99589.09;5095978;27;97286;-27
2024/01/17 07:02:16;;;;;;;1.15;0.93;;;;;;;-1.30;88.46;99586.38;5095433;27;96533;-27
2024/01/17 07:04:42;;;;;;;1.67;0.88;;;;;;;-1.21;88.71;99589.66;5095367;27;96735;-27
2024/01/17 07:07:07;;;;;;;0.88;0.60;;;;;;;-1.24;88.58;99589.72;5095491;27;99581;-27
2024/01/17 07:09:33;;;;;;;0.95;0.88;;;;;;;-1.29;88.46;99574.84;5095247;27;97334;-27
2024/01/17 07:11:58;;;;;;;0.65;0.65;;;;;;;-1.30;88.74;99567.78;5095676;27;96537;-26
2024/01/17 07:14:24;;;;;;;0.25;0.25;;;;;;;-1.31;88.81;99573.16;5095696;27;96913;-27
2024/01/17 07:16:49;;;;;;;0.47;0.47;;;;;;;-1.29;88.83;99576.59;5076894;27;100965;-27
2024/01/17 07:19:15;;;;;;;0.95;0.68;;;;;;;-1.34;88.54;99558.16;5095810;27;98471;-27
2024/01/17 07:21:42;;;;;;;0.55;0.43;;;;;;;-1.35;88.82;99551.13;5095794;27;96432;-28
2024/01/17 07:24:08;;;;;;;0.30;0.30;;;;;;;-1.34;88.48;99552.84;5095036;27;96814;-27
2024/01/17 07:26:33;;;;;;;0.55;0.55;;;;;;;-1.33;88.70;99548.44;5076210;27;100923;-27
2024/01/17 07:28:58;;;;;;;0.20;0.20;;;;;;;-1.28;88.69;99546.47;5095120;27;98906;-26
2024/01/17 07:31:24;;;;;;;0.75;0.75;;;;;;;-1.19;88.75;99538.19;5095431;27;96681;-28
2024/01/17 07:33:49;;;;;;;0.30;0.30;;;;;;;-1.21;88.42;99537.38;5095362;27;96730;-27
2024/01/17 07:36:14;;;;;;;0.90;0.82;;;;;;;-1.18;87.97;99541.72;5095402;27;97677;-27
2024/01/17 07:38:40;;;;;;;3.90;1.60;;;;;;;-1.19;88.09;99532.00;5094931;27;99181;-27
2024/01/17 07:41:05;;;;;;;0.68;0.68;;;;;;;-1.18;88.30;99536.41;5095239;27;96491;-27
2024/01/17 07:43:31;;;;;;;0.65;0.65;;;;;;;-1.10;88.37;99535.22;5095743;27;96757;-27
2024/01/17 07:45:57;;;;;;;0.82;0.82;;;;;;;-1.10;88.32;99535.22;5076392;27;99290;-26
2024/01/17 07:48:22;;;;;;;1.23;1.05;;;;;;;-1.18;87.74;99528.44;5095026;27;99186;-27
2024/01/17 07:50:48;;;;;;;0.20;0.20;;;;;;;-1.13;87.68;99529.13;5094610;27;96478;-27
2024/01/17 07:53:13;;;;;;;0.13;0.13;;;;;;;-1.16;87.99;99534.56;5094649;27;96781;-29
2024/01/17 07:55:39;;;;;;;1.05;0.80;;;;;;;-1.16;88.17;99529.25;5095198;27;97252;-27
2024/01/17 07:58:05;;;;;;;0.08;0.08;;;;;;;-1.17;88.50;99524.84;5076177;27;101044;-27
2024/01/17 08:00:30;;;;;;;0.20;0.17;;;;;;;-1.24;87.87;99532.19;5076480;27;96624;-27
2024/01/17 08:02:57;;;;;;;0.20;0.20;;;;;;;-1.18;88.48;99525.78;5094994;27;96774;-27
2024/01/17 08:05:22;;;;;;;1.15;0.93;;;;;;;-1.05;88.88;99524.41;5075424;27;98956;-27
2024/01/17 08:07:48;;;;;;;0.90;0.47;;;;;;;-1.10;87.86;99515.72;5095056;27;97879;-27
2024/01/17 08:10:13;;;;;;;0.77;0.77;;;;;;;-1.32;88.88;99512.97;5094948;27;96619;-27
2024/01/17 08:12:39;;;;;;;0.68;0.55;;;;;;;-1.44;89.47;99508.09;5094874;27;96717;-27
2024/01/17 08:15:08;;;;;;;0.30;0.30;;;;;;;-1.30;89.66;99512.00;5094032;27;102862;-27
2024/01/17 08:17:33;;;;;;;1.08;0.68;;;;;;;-1.31;89.84;99488.16;5094410;27;99449;-26
2024/01/17 08:19:59;;;;;;;1.08;0.98;;;;;;;-1.36;89.78;99496.28;5093774;27;96585;-27
2024/01/17 08:22:25;;;;;;;0.38;0.38;;;;;;;-1.42;89.71;99487.66;5094336;27;96949;-27
2024/01/17 08:24:51;;;;;;;0.98;0.95;;;;;;;-1.38;89.99;99495.47;5075722;27;100847;-27
2024/01/17 08:27:16;;;;;;;2.67;0.68;;;;;;;-1.30;89.88;99500.50;5094541;27;97747;-27
2024/01/17 08:29:45;;;;;;;0.73;0.73;;;;;;;-1.23;89.54;99501.16;5094576;27;96534;-27
2024/01/17 08:32:10;;;;;;;0.10;0.10;;;;;;;-1.18;89.49;99499.22;5076143;27;96653;-27
2024/01/17 08:34:36;;;;;;;1.35;1.25;;;;;;;-1.20;89.32;99485.13;5094453;27;97987;-27
2024/01/17 08:37:01;;;;;;;0.28;0.28;;;;;;;-1.17;89.12;99488.53;5094283;27;97733;-27
2024/01/17 08:39:27;;;;;;;0.22;0.22;;;;;;;-1.12;89.15;99483.03;5093823;27;96531;-29
2024/01/17 08:41:53;;;;;;;0.88;0.88;;;;;;;-1.06;88.84;99480.16;5094356;27;96717;-27
2024/01/17 08:44:19;;;;;;;1.40;0.98;;;;;;;-1.09;88.60;99483.81;5075472;27;100873;-27
2024/01/17 08:46:46;;;;;;;0.38;0.35;;;;;;;-1.09;88.71;99467.00;5094045;27;99358;-27
2024/01/17 08:49:12;;;;;;;0.73;0.68;;;;;;;-1.21;88.08;99463.00;5075447;27;96618;-28
2024/01/17 08:51:37;;;;;;;0.50;0.50;;;;;;;-1.14;88.01;99467.16;5075094;27;96593;-27
2024/01/17 08:54:04;;;;;;;0.80;0.80;;;;;;;-1.09;88.09;99469.66;5093839;27;99118;-27
2024/01/17 08:56:30;;;;;;;2.45;1.23;;;;;;;-1.06;87.95;99461.56;5094257;27;97796;-29
2024/01/17 08:58:56;;;;;;;2.05;0.95;;;;;;;-1.00;88.07;99461.34;5094304;27;96439;-27
2024/01/17 09:01:22;;;;;;;0.40;0.40;;;;;;;-1.01;88.00;99451.63;5075390;27;96859;-27
2024/01/17 09:03:47;;;;;;;0.95;0.88;;;;;;;-0.94;87.96;99446.97;5093435;27;97748;-28
2024/01/17 09:06:12;;;;;;;1.60;1.33;;;;;;;-0.95;87.59;99453.22;5093598;27;96578;-27
2024/01/17 09:08:37;;;;;;;0.10;0.10;;;;;;;-0.90;87.77;99437.97;5093897;27;96545;-29
2024/01/17 09:11:05;;;;;;;1.65;1.35;;;;;;;-0.96;86.52;99436.38;5094095;27;96766;-27
2024/01/17 09:13:31;;;;;;;0.00;0.00;;;;;;;-0.87;86.88;99437.84;5075096;27;100952;-26
2024/01/17 09:15:56;;;;;;;1.38;1.27;;;;;;;-0.90;87.44;99441.47;5093725;27;97891;-28
2024/01/17 09:18:21;;;;;;;1.40;1.30;;;;;;;-0.92;87.90;99442.47;5093465;27;101944;-28
2024/01/17 09:20:47;;;;;;;0.75;0.68;;;;;;;-0.81;87.56;99432.31;5093868;27;96814;-27
2024/01/17 09:23:13;;;;;;;0.30;0.30;;;;;;;-0.75;87.05;99424.06;5093343;27;99824;-27
2024/01/17 09:25:38;;;;;;;0.52;0.32;;;;;;;-0.73;87.17;99413.41;5074816;27;100834;-27
2024/01/17 09:28:04;;;;;;;3.65;2.35;;;;;;;-0.72;86.78;99413.31;5093309;27;97105;-26
2024/01/17 09:30:29;;;;;;;2.97;0.60;;;;;;;-0.71;86.18;99404.44;5093661;27;96689;-27
2024/01/17 09:32:55;;;;;;;0.55;0.50;;;;;;;-0.69;85.40;99407.91;5093378;27;101619;-28
2024/01/17 09:35:20;;;;;;;0.20;0.20;;;;;;;-0.79;85.81;99389.69;5093569;27;97728;-27
2024/01/17 09:37:45;;;;;;;1.77;1.10;;;;;;;-0.73;85.88;99392.13;5093527;27;96570;-27
2024/01/17 09:40:13;;;;;;;0.10;0.10;;;;;;;-0.66;85.87;99401.59;5093822;27;96882;-28
2024/01/17 09:42:39;;;;;;;1.38;0.55;;;;;;;-0.69;84.81;99401.69;5074546;27;101177;-27
2024/01/17 09:45:09;;;;;;;1.77;0.75;;;;;;;-0.46;85.81;99406.13;5075031;27;101120;-27
2024/01/17 09:47:36;;;;;;;0.50;0.45;;;;;;;-0.41;84.44;99406.78;5074788;27;96642;-26
2024/01/17 09:50:02;;;;;;;0.25;0.25;;;;;;;-0.50;84.30;99391.19;5074527;27;96801;-27
2024/01/17 09:52:27;;;;;;;1.02;0.38;;;;;;;-0.50;84.04;99389.44;5092183;27;99314;-27
2024/01/17 09:54:53;;;;;;;3.20;1.40;;;;;;;-0.49;84.39;99380.50;5093169;27;99402;-27
2024/01/17 09:57:23;;;;;;;2.30;1.35;;;;;;;-0.44;84.16;99380.34;5093529;27;96530;-28
2024/01/17 09:59:59;;;;;;;0.40;0.40;;;;;;;-0.40;84.95;99386.41;5074753;27;96792;-28
2024/01/17 10:02:27;;;;;;;0.90;0.90;;;;;;;-0.35;84.58;99390.59;5093178;27;97882;-27
2024/01/17 10:04:53;;;;;;;0.80;0.80;;;;;;;-0.31;84.35;99391.31;5092026;27;98887;-27
2024/01/17 10:07:18;;;;;;;0.95;0.85;;;;;;;-0.47;85.30;99386.63;5093182;27;96643;-27
2024/01/17 10:09:45;;;;;;;0.82;0.77;;;;;;;-0.39;85.16;99382.81;5093634;27;96736;-27
2024/01/17 10:12:12;;;;;;;0.70;0.70;;;;;;;-0.30;85.35;99383.28;5092966;27;97273;-27
2024/01/17 10:14:37;;;;;;;0.45;0.45;;;;;;;-0.17;84.96;99382.78;5092926;27;98687;-27
2024/01/17 10:17:04;;;;;;;0.38;0.38;;;;;;;-0.09;84.46;99367.38;5073916;27;97064;-27
2024/01/17 10:19:30;;;;;;;0.05;0.05;;;;;;;-0.02;84.10;99368.84;5074324;27;97226;-27
2024/01/17 10:21:55;;;;;;;1.00;0.68;;;;;;;-0.02;83.92;99364.41;5092849;27;99245;-27
2024/01/17 10:24:21;;;;;;;0.50;0.45;;;;;;;0.02;83.97;99353.59;5092526;27;99239;-27
2024/01/17 10:26:48;;;;;;;0.70;0.38;;;;;;;0.14;84.78;99356.63;5093124;27;96427;-27
2024/01/17 10:29:13;;;;;;;0.20;0.17;;;;;;;0.19;84.65;99359.97;5074371;27;96753;-27
2024/01/17 10:31:40;;;;;;;0.25;0.17;;;;;;;0.23;84.56;99351.81;5092597;27;99577;-27
2024/01/17 10:34:05;;;;;;;0.85;0.50;;;;;;;0.24;84.81;99335.78;5092985;27;97314;-26
2024/01/17 10:36:31;;;;;;;0.32;0.32;;;;;;;0.24;83.86;99343.78;5092126;27;96555;-27
2024/01/17 10:39:06;;;;;;;0.00;0.00;;;;;;;0.29;83.91;99343.59;5092673;27;96775;-27
2024/01/17 10:41:32;;;;;;;0.38;0.38;;;;;;;0.35;84.47;99344.16;5073483;27;101242;-27
2024/01/17 10:44:02;;;;;;;1.10;1.05;;;;;;;0.37;84.39;99342.28;5075094;27;100831;-27
2024/01/17 10:46:28;;;;;;;0.75;0.38;;;;;;;0.44;83.94;99342.03;5095857;27;96785;-27
2024/01/17 10:48:53;;;;;;;0.55;0.43;;;;;;;0.46;83.93;99345.50;5095986;27;96772;-27
2024/01/17 10:51:23;;;;;;;0.57;0.57;;;;;;;0.47;84.12;99328.56;5093959;27;100167;-33
2024/01/17 10:53:54;;;;;;;1.60;0.73;;;;;;;0.55;83.96;99329.06;5094150;27;98128;-27
2024/01/17 10:56:20;;;;;;;0.65;0.52;;;;;;;0.48;83.62;99314.31;5075476;27;97377;-27
2024/01/17 10:58:51;;;;;;;1.98;1.25;;;;;;;0.58;83.12;99315.63;5076424;27;97041;-31
2024/01/17 11:01:32;;;;;;;0.85;0.75;;;;;;;0.62;83.67;99317.22;5075101;27;101493;-29
2024/01/17 11:04:06;;;;;;;1.47;1.10;;;;;;;0.60;82.88;99301.31;5076884;27;100864;-27
2024/01/17 11:06:33;;;;;;;1.63;0.90;;;;;;;0.55;83.13;99291.78;5076632;27;96948;-27
2024/01/17 11:09:00;;;;;;;0.15;0.15;;;;;;;0.62;83.32;99295.91;5077269;27;97686;-27
2024/01/17 11:11:27;;;;;;;0.90;0.32;;;;;;;0.59;83.08;99301.38;5075567;27;100781;-27
2024/01/17 11:13:54;;;;;;;0.75;0.73;;;;;;;0.59;82.95;99288.91;5074351;27;101059;-28
2024/01/17 11:16:20;;;;;;;1.02;0.73;;;;;;;0.65;82.79;99298.44;5074563;27;97082;-27
2024/01/17 11:18:47;;;;;;;0.95;0.88;;;;;;;0.68;83.27;99300.09;5074537;27;97166;-29
2024/01/17 11:21:12;;;;;;;0.08;0.08;;;;;;;0.62;82.96;99288.78;5074393;27;101012;-33
2024/01/17 11:24:20;;;;;;;0.60;0.50;;;;;;;0.68;83.11;99289.44;5057722;27;101663;-33
2024/01/17 11:26:57;;;;;;;0.30;0.30;;;;;;;0.58;82.67;99281.00;5093043;27;96706;-27